Time;durP1;ratioP1;P1;durP2;ratioP2;P2;SDS_P1;SDS_P2;PMS_P1;PMS_P2;Temp;Humidity;BMP_temperature;BMP_pressure;BME280_temperature;BME280_humidity;BME280_pressure;Samples;Min_cycle;Max_cycle;Signal;HPM_P1;HPM_P2
2021/06/28 00:00:37;;;;;;;14.15;6.00;;;;;;;27.10;56.40;100735.25;5043515;28;20045;-66
2021/06/28 00:03:06;;;;;;;14.32;5.85;;;;;;;26.96;56.66;100733.28;5051243;28;20045;-65
2021/06/28 00:05:33;;;;;;;16.23;6.38;;;;;;;26.88;57.20;100736.34;5048567;28;20079;-65
2021/06/28 00:08:01;;;;;;;15.43;6.78;;;;;;;26.72;57.88;100729.94;5052950;28;20036;-65
2021/06/28 00:10:29;;;;;;;14.27;6.45;;;;;;;26.79;57.70;100727.81;5043969;28;20146;-65
2021/06/28 00:12:59;;;;;;;15.68;5.90;;;;;;;26.78;57.36;100729.63;5048457;28;20071;-65
2021/06/28 00:15:29;;;;;;;18.30;6.53;;;;;;;26.85;56.82;100731.06;5042399;28;20049;-65
2021/06/28 00:17:59;;;;;;;11.07;5.05;;;;;;;26.92;56.78;100731.66;5052669;28;20044;-66
2021/06/28 00:20:27;;;;;;;16.10;5.80;;;;;;;27.01;56.11;100730.31;5044304;28;20115;-65
2021/06/28 00:22:55;;;;;;;13.10;5.57;;;;;;;27.07;55.50;100727.28;5048644;28;20548;-65
2021/06/28 00:25:23;;;;;;;14.45;5.72;;;;;;;27.03;55.68;100728.41;5052594;28;20049;-65
2021/06/28 00:27:51;;;;;;;14.57;5.70;;;;;;;27.01;55.20;100725.78;5046135;28;20052;-65
2021/06/28 00:30:20;;;;;;;15.48;5.75;;;;;;;26.94;55.17;100719.78;5052398;28;20045;-64
2021/06/28 00:32:48;;;;;;;9.60;5.25;;;;;;;26.86;55.51;100722.00;5051404;28;20139;-65
2021/06/28 00:35:21;;;;;;;16.80;5.88;;;;;;;26.86;55.00;100719.28;5052302;28;20036;-65
2021/06/28 00:37:49;;;;;;;16.58;5.97;;;;;;;26.90;54.65;100717.34;5051985;28;20149;-65
2021/06/28 00:40:18;;;;;;;10.85;5.22;;;;;;;26.98;54.26;100715.94;5051926;28;20040;-66
2021/06/28 00:42:46;;;;;;;13.38;6.07;;;;;;;27.03;54.16;100714.84;5050945;28;20063;-65
2021/06/28 00:45:23;;;;;;;11.57;5.15;;;;;;;26.98;53.83;100722.34;5047337;28;20048;-65
2021/06/28 00:47:51;;;;;;;12.40;4.95;;;;;;;26.85;54.00;100717.53;5047297;28;20581;-64
2021/06/28 00:50:21;;;;;;;15.00;5.25;;;;;;;26.83;53.95;100721.28;5051420;28;20055;-65
2021/06/28 00:52:53;;;;;;;9.88;5.10;;;;;;;26.90;53.62;100715.50;5051213;28;20131;-65
2021/06/28 00:55:21;;;;;;;14.18;4.80;;;;;;;26.95;53.44;100709.84;5044163;28;20044;-65
2021/06/28 00:57:49;;;;;;;15.65;5.35;;;;;;;26.91;53.29;100719.94;5050314;28;21260;-65
2021/06/28 01:00:17;;;;;;;12.35;4.85;;;;;;;26.90;52.71;100715.50;5049197;28;20110;-65
2021/06/28 01:02:44;;;;;;;16.23;5.85;;;;;;;26.89;52.82;100721.00;5047383;28;20122;-65
2021/06/28 01:05:18;;;;;;;17.98;4.97;;;;;;;26.76;52.93;100715.31;5051654;28;20504;-65
2021/06/28 01:07:48;;;;;;;14.93;5.57;;;;;;;26.67;52.90;100717.59;5048875;28;20052;-65
2021/06/28 01:10:18;;;;;;;16.67;5.05;;;;;;;26.64;53.20;100721.38;5050355;28;21155;-65
2021/06/28 01:12:46;;;;;;;12.90;5.05;;;;;;;26.71;52.73;100720.09;5051011;28;20501;-65
2021/06/28 01:15:15;;;;;;;12.90;5.13;;;;;;;26.78;52.56;100726.94;5044557;28;20052;-65
2021/06/28 01:17:43;;;;;;;14.68;5.32;;;;;;;26.69;52.63;100719.28;5051444;28;20041;-65
2021/06/28 01:20:13;;;;;;;14.45;4.97;;;;;;;26.80;52.09;100727.72;5051024;28;20041;-65
2021/06/28 01:22:42;;;;;;;14.57;5.43;;;;;;;26.81;52.01;100736.75;5040222;28;20048;-64
2021/06/28 01:25:13;;;;;;;13.82;4.20;;;;;;;26.80;51.84;100726.84;5051377;28;20049;-66
2021/06/28 01:27:42;;;;;;;12.20;4.07;;;;;;;26.82;51.37;100722.25;5040367;28;20048;-65
2021/06/28 01:30:13;;;;;;;12.73;4.90;;;;;;;26.85;51.09;100731.06;5044987;28;20553;-65
2021/06/28 01:32:42;;;;;;;16.17;5.18;;;;;;;26.90;51.18;100729.06;5050199;28;20447;-65
2021/06/28 01:35:10;;;;;;;9.57;4.57;;;;;;;26.87;51.31;100731.88;5050975;28;20044;-65
2021/06/28 01:37:38;;;;;;;12.73;4.57;;;;;;;26.76;51.41;100720.72;5049025;28;20048;-66
2021/06/28 01:40:09;;;;;;;14.50;4.95;;;;;;;26.77;51.10;100722.50;5068917;28;20417;-65
2021/06/28 01:42:39;;;;;;;14.38;5.07;;;;;;;26.77;51.10;100732.44;5050608;28;20153;-64
2021/06/28 01:45:10;;;;;;;12.55;4.78;;;;;;;26.71;51.49;100724.63;5050585;28;20047;-65
2021/06/28 01:47:38;;;;;;;9.70;4.43;;;;;;;26.62;51.55;100730.53;5044583;28;20052;-66
2021/06/28 01:50:07;;;;;;;13.15;4.68;;;;;;;26.63;51.49;100732.28;5045080;28;20040;-65
2021/06/28 01:52:35;;;;;;;14.75;4.63;;;;;;;26.59;51.29;100728.84;5040951;28;20118;-65
2021/06/28 01:55:03;;;;;;;15.43;4.97;;;;;;;26.54;51.49;100729.06;5040158;28;20056;-65
2021/06/28 01:57:31;;;;;;;15.27;5.18;;;;;;;26.54;51.27;100729.06;5051150;28;20042;-63
2021/06/28 02:00:01;;;;;;;13.98;4.70;;;;;;;26.56;51.25;100723.59;5040200;28;20041;-62
2021/06/28 02:02:28;;;;;;;12.20;4.60;;;;;;;26.66;50.67;100719.44;5040348;28;20049;-62
2021/06/28 02:04:56;;;;;;;11.73;4.70;;;;;;;26.72;49.99;100718.25;5046823;28;20079;-64
2021/06/28 02:07:24;;;;;;;18.27;5.50;;;;;;;26.73;49.99;100720.88;5050955;28;20044;-62
2021/06/28 02:09:52;;;;;;;13.55;5.05;;;;;;;26.73;49.71;100725.41;5051190;28;20074;-63
2021/06/28 02:12:20;;;;;;;10.15;4.50;;;;;;;26.73;49.60;100725.41;5050275;28;20048;-62
2021/06/28 02:14:48;;;;;;;13.73;5.55;;;;;;;26.77;49.82;100729.75;5042556;28;20037;-62
2021/06/28 02:17:18;;;;;;;15.35;4.97;;;;;;;26.79;49.80;100725.09;5046684;28;20052;-64
2021/06/28 02:19:48;;;;;;;15.35;5.07;;;;;;;26.75;49.90;100727.09;5044183;28;20055;-62
2021/06/28 02:22:16;;;;;;;11.70;4.88;;;;;;;26.71;50.04;100727.34;5050528;28;20123;-63
2021/06/28 02:24:44;;;;;;;14.50;5.75;;;;;;;26.70;49.93;100731.00;5052891;28;20137;-62
2021/06/28 02:27:12;;;;;;;12.27;4.82;;;;;;;26.70;50.25;100725.59;5053930;28;20085;-62
2021/06/28 02:29:39;;;;;;;13.75;5.07;;;;;;;26.71;50.44;100724.63;5045602;28;20060;-65
2021/06/28 02:32:07;;;;;;;14.73;5.55;;;;;;;26.75;50.69;100729.81;5043465;28;20049;-65
2021/06/28 02:34:37;;;;;;;13.70;4.97;;;;;;;26.73;50.73;100731.72;5043708;28;20047;-65
2021/06/28 02:37:05;;;;;;;13.20;6.55;;;;;;;26.73;50.56;100725.41;5054716;28;20159;-64
2021/06/28 02:39:33;;;;;;;16.48;6.03;;;;;;;26.68;50.84;100727.50;5045319;28;20048;-64
2021/06/28 02:42:00;;;;;;;11.93;5.47;;;;;;;26.69;51.12;100729.25;5054299;28;20052;-64
2021/06/28 02:44:28;;;;;;;15.60;5.22;;;;;;;26.73;51.13;100723.59;5053648;28;20697;-64
2021/06/28 02:46:55;;;;;;;13.43;4.80;;;;;;;26.77;51.27;100716.19;5053956;28;20104;-64
2021/06/28 02:49:23;;;;;;;16.35;5.70;;;;;;;26.79;51.42;100725.09;5054060;28;20048;-63
2021/06/28 02:51:52;;;;;;;16.83;5.80;;;;;;;26.75;51.37;100727.09;5044201;28;20040;-63
2021/06/28 02:54:19;;;;;;;13.60;4.97;;;;;;;26.70;51.59;100731.00;5042540;28;20060;-64
2021/06/28 02:56:47;;;;;;;14.80;5.32;;;;;;;26.71;51.50;100736.34;5045214;28;20514;-63
2021/06/28 02:59:15;;;;;;;12.15;5.65;;;;;;;26.69;51.81;100729.25;5053733;28;20059;-64
2021/06/28 03:01:42;;;;;;;15.95;5.32;;;;;;;26.66;52.13;100741.09;5042628;28;20056;-64
2021/06/28 03:04:10;;;;;;;14.80;5.45;;;;;;;26.65;52.12;100739.34;5053783;28;21673;-64
2021/06/28 03:06:38;;;;;;;14.70;4.82;;;;;;;26.70;51.90;100748.16;5046856;28;21485;-64
2021/06/28 03:09:07;;;;;;;13.00;5.30;;;;;;;26.72;51.87;100746.22;5052247;28;20843;-64
2021/06/28 03:11:34;;;;;;;14.32;5.18;;;;;;;26.78;52.02;100751.31;5043415;28;20124;-63
2021/06/28 03:14:02;;;;;;;11.35;4.80;;;;;;;26.81;51.82;100744.88;5048439;28;20050;-64
2021/06/28 03:16:29;;;;;;;12.70;5.15;;;;;;;26.84;51.72;100751.03;5051871;28;20059;-63
2021/06/28 03:18:56;;;;;;;13.55;5.25;;;;;;;26.87;51.94;100744.53;5050216;28;20040;-64
2021/06/28 03:21:24;;;;;;;14.40;5.40;;;;;;;26.89;52.00;100745.38;5052810;28;20041;-64
2021/06/28 03:23:52;;;;;;;21.02;6.38;;;;;;;26.92;51.86;100753.34;5053292;28;20067;-63
2021/06/28 03:26:21;;;;;;;12.88;5.25;;;;;;;26.98;52.08;100745.75;5052370;28;20041;-64
2021/06/28 03:28:50;;;;;;;10.82;4.55;;;;;;;27.03;51.86;100752.78;5053412;28;21628;-64
2021/06/28 03:31:18;;;;;;;16.52;5.30;;;;;;;27.08;52.18;100759.72;5045884;28;20055;-64
2021/06/28 03:33:45;;;;;;;19.13;5.68;;;;;;;27.18;52.28;100754.69;5043572;28;20089;-64
2021/06/28 03:36:13;;;;;;;14.45;5.00;;;;;;;27.22;52.50;100768.00;5052964;28;20037;-63
2021/06/28 03:38:41;;;;;;;18.45;5.15;;;;;;;27.36;52.37;100761.84;5047671;28;20045;-64
2021/06/28 03:41:08;;;;;;;14.43;5.50;;;;;;;27.51;52.55;100758.28;5042291;28;20041;-63
2021/06/28 03:43:37;;;;;;;11.95;4.65;;;;;;;27.66;52.29;100757.47;5045526;28;20046;-63
2021/06/28 03:46:05;;;;;;;14.95;4.78;;;;;;;27.80;51.96;100758.56;5042971;28;20402;-63
2021/06/28 03:48:33;;;;;;;14.60;4.10;;;;;;;27.94;51.55;100764.09;5052582;28;20056;-63
2021/06/28 03:51:00;;;;;;;15.30;4.75;;;;;;;28.07;51.24;100755.16;5052779;28;20050;-64
2021/06/28 03:53:27;;;;;;;14.55;4.07;;;;;;;28.23;50.62;100762.44;5043336;28;20121;-64
2021/06/28 03:55:55;;;;;;;17.25;4.43;;;;;;;28.39;50.18;100757.91;5053089;28;20040;-64
2021/06/28 03:58:23;;;;;;;12.32;4.65;;;;;;;28.55;49.60;100762.31;5044560;28;20132;-64
2021/06/28 04:00:52;;;;;;;10.25;3.70;;;;;;;28.73;48.96;100768.53;5051835;28;20329;-64
2021/06/28 04:03:24;;;;;;;14.70;3.90;;;;;;;28.89;48.82;100763.94;5052554;28;20037;-64
2021/06/28 04:05:52;;;;;;;11.27;4.43;;;;;;;29.08;48.86;100769.13;5041779;28;20598;-65
2021/06/28 04:08:19;;;;;;;12.93;4.22;;;;;;;29.25;48.50;100776.28;5052458;28;20055;-64
2021/06/28 04:10:47;;;;;;;10.63;4.18;;;;;;;29.40;48.29;100775.38;5051654;28;20049;-65
2021/06/28 04:13:15;;;;;;;13.00;4.45;;;;;;;29.54;48.20;100779.91;5045511;28;20041;-64
2021/06/28 04:15:42;;;;;;;13.32;4.18;;;;;;;29.70;48.11;100772.53;5041904;28;20053;-64
2021/06/28 04:18:13;;;;;;;18.70;6.15;;;;;;;29.84;48.05;100775.25;5052251;28;20045;-63
2021/06/28 04:20:41;;;;;;;15.80;5.78;;;;;;;29.98;47.79;100775.28;5051882;28;20101;-64
2021/06/28 04:23:09;;;;;;;11.57;3.90;;;;;;;30.10;47.55;100777.22;5052483;28;20056;-63
2021/06/28 04:25:37;;;;;;;16.10;4.75;;;;;;;30.25;47.45;100777.19;5052045;28;20059;-64
2021/06/28 04:28:05;;;;;;;13.52;4.93;;;;;;;30.36;47.51;100769.16;5051530;28;20101;-64
2021/06/28 04:30:33;;;;;;;15.63;4.63;;;;;;;30.52;47.13;100767.22;5052483;28;20134;-64
2021/06/28 04:33:00;;;;;;;12.07;4.53;;;;;;;30.68;46.82;100773.34;5071885;28;20193;-65
2021/06/28 04:35:30;;;;;;;10.98;4.05;;;;;;;30.86;46.67;100773.94;5065708;28;20052;-64
2021/06/28 04:37:59;;;;;;;15.45;3.90;;;;;;;31.01;46.60;100769.28;5071994;28;20047;-64
2021/06/28 04:40:28;;;;;;;13.75;4.38;;;;;;;31.14;45.98;100775.69;5068044;28;20539;-64
2021/06/28 04:42:57;;;;;;;11.38;4.35;;;;;;;31.40;45.76;100782.03;5070469;28;20521;-64
2021/06/28 04:45:26;;;;;;;12.35;3.13;;;;;;;31.66;44.95;100779.22;5060795;28;20586;-64
2021/06/28 04:47:54;;;;;;;13.77;3.58;;;;;;;31.94;44.19;100778.09;5064598;28;20157;-64
2021/06/28 04:50:24;;;;;;;8.10;3.22;;;;;;;32.18;43.76;100789.09;5071926;28;20040;-63
2021/06/28 04:52:54;;;;;;;9.45;3.65;;;;;;;32.54;42.71;100774.56;5071502;28;20127;-64
2021/06/28 04:55:23;;;;;;;10.57;3.45;;;;;;;32.92;41.76;100790.78;5066808;27;20040;-64
2021/06/28 04:57:52;;;;;;;11.93;3.55;;;;;;;33.11;41.23;100782.91;5071187;28;21630;-64
2021/06/28 05:00:22;;;;;;;11.02;2.85;;;;;;;33.07;40.32;100786.00;5060193;28;20079;-64
2021/06/28 05:02:50;;;;;;;12.63;3.65;;;;;;;33.14;40.66;100792.75;5052100;28;20135;-63
2021/06/28 05:05:18;;;;;;;9.68;3.17;;;;;;;33.37;40.40;100800.03;5071379;28;20055;-64
2021/06/28 05:07:46;;;;;;;11.23;3.20;;;;;;;33.63;39.27;100803.44;5063644;28;20052;-64
2021/06/28 05:10:17;;;;;;;12.48;4.05;;;;;;;33.76;39.10;100806.97;5062954;28;20036;-64
2021/06/28 05:12:45;;;;;;;11.45;2.90;;;;;;;33.84;38.45;100796.28;5071358;28;20113;-64
2021/06/28 05:15:14;;;;;;;11.52;3.50;;;;;;;34.21;38.11;100796.00;5060747;28;20919;-65
2021/06/28 05:17:42;;;;;;;11.23;3.42;;;;;;;34.54;37.52;100798.69;5071116;28;20048;-65
2021/06/28 05:20:13;;;;;;;14.73;3.33;;;;;;;34.89;36.86;100805.84;5070212;28;20046;-64
2021/06/28 05:22:42;;;;;;;12.07;3.10;;;;;;;35.05;36.71;100806.28;5064827;28;20048;-64
2021/06/28 05:25:11;;;;;;;8.18;2.70;;;;;;;35.28;36.41;100802.44;5071260;28;20546;-64
2021/06/28 05:27:42;;;;;;;10.88;3.55;;;;;;;35.48;36.04;100796.06;5069928;28;20508;-65
2021/06/28 05:30:11;;;;;;;13.15;3.60;;;;;;;35.38;36.01;100810.75;5071464;28;20154;-64
2021/06/28 05:32:40;;;;;;;13.65;3.42;;;;;;;35.54;36.32;100808.41;5063382;28;20959;-65
2021/06/28 05:35:09;;;;;;;13.10;2.75;;;;;;;35.75;35.99;100808.41;5059492;28;20055;-64
2021/06/28 05:37:37;;;;;;;9.10;3.75;;;;;;;35.72;36.13;100812.28;5068333;28;20044;-64
2021/06/28 05:40:06;;;;;;;26.42;4.82;;;;;;;35.69;36.50;100817.16;5067572;28;20047;-64
2021/06/28 05:42:33;;;;;;;15.02;3.88;;;;;;;36.15;36.12;100822.19;5066196;28;20040;-65
2021/06/28 05:45:04;;;;;;;11.38;3.25;;;;;;;36.55;35.64;100816.69;5070939;28;20420;-65
2021/06/28 05:47:32;;;;;;;12.07;3.58;;;;;;;36.60;35.27;100828.13;5070326;28;20044;-64
2021/06/28 05:50:00;;;;;;;11.25;3.10;;;;;;;36.72;34.88;100827.03;5068717;28;20056;-64
2021/06/28 05:52:28;;;;;;;9.25;2.85;;;;;;;36.86;34.66;100834.88;5070463;28;20036;-64
2021/06/28 05:54:55;;;;;;;8.88;3.20;;;;;;;36.86;34.84;100840.38;5063987;28;20036;-64
2021/06/28 05:57:24;;;;;;;11.23;2.65;;;;;;;36.88;34.80;100843.88;5063732;28;20160;-64
2021/06/28 05:59:56;;;;;;;10.05;2.80;;;;;;;37.07;34.29;100838.38;5067964;28;20044;-64
2021/06/28 06:02:25;;;;;;;14.30;3.22;;;;;;;37.09;34.10;100855.59;5063225;28;20090;-64
2021/06/28 06:04:53;;;;;;;12.02;2.90;;;;;;;36.96;33.96;100851.38;5061745;28;20048;-64
2021/06/28 06:07:21;;;;;;;14.88;3.03;;;;;;;36.94;34.33;100856.19;5068641;28;20040;-65
2021/06/28 06:09:48;;;;;;;10.15;2.70;;;;;;;37.20;34.01;100867.53;5048184;28;20045;-65
2021/06/28 06:12:15;;;;;;;12.68;3.40;;;;;;;37.44;33.75;100877.09;5059653;28;20063;-65
2021/06/28 06:14:43;;;;;;;11.00;3.25;;;;;;;37.63;33.35;100870.69;5062829;28;20044;-65
2021/06/28 06:17:11;;;;;;;10.88;2.60;;;;;;;37.55;33.38;100872.44;5062671;28;20044;-65
2021/06/28 06:19:41;;;;;;;10.95;3.03;;;;;;;37.45;33.54;100870.56;5061031;28;20110;-65
2021/06/28 06:22:09;;;;;;;9.00;2.60;;;;;;;37.60;32.98;100862.75;5063069;28;20190;-64
2021/06/28 06:24:37;;;;;;;11.65;3.55;;;;;;;37.66;33.16;100855.75;5062400;28;20423;-64
2021/06/28 06:27:06;;;;;;;18.20;2.53;;;;;;;37.71;33.36;100856.19;5062913;28;20039;-65
2021/06/28 06:29:35;;;;;;;13.43;3.20;;;;;;;37.95;32.92;100863.94;5061943;28;20174;-65
2021/06/28 06:32:04;;;;;;;11.00;2.70;;;;;;;38.19;32.80;100867.97;5059866;28;20570;-65
2021/06/28 06:34:31;;;;;;;10.88;3.08;;;;;;;38.17;33.29;100866.38;5066628;28;20105;-65
2021/06/28 06:37:00;;;;;;;11.15;2.42;;;;;;;37.94;33.04;100873.25;5069520;28;20052;-64
2021/06/28 06:39:27;;;;;;;8.15;2.55;;;;;;;37.62;33.30;100865.31;5061981;28;20770;-64
2021/06/28 06:41:55;;;;;;;14.88;3.42;;;;;;;37.63;33.39;100870.69;5063904;28;20050;-65
2021/06/28 06:44:22;;;;;;;11.25;3.55;;;;;;;37.70;33.60;100868.22;5063455;28;20048;-65
2021/06/28 06:46:50;;;;;;;12.50;3.00;;;;;;;37.81;33.79;100877.19;5062956;28;20052;-64
2021/06/28 06:49:18;;;;;;;7.13;2.80;;;;;;;37.84;33.49;100876.91;5064714;28;20047;-64
2021/06/28 06:51:48;;;;;;;13.95;2.88;;;;;;;37.93;33.46;100877.03;5062164;28;20071;-64
2021/06/28 06:54:17;;;;;;;16.95;3.40;;;;;;;37.93;33.54;100874.28;5063928;28;20048;-64
2021/06/28 06:56:46;;;;;;;8.77;2.35;;;;;;;37.96;33.72;100885.84;5062604;28;20036;-64
2021/06/28 06:59:13;;;;;;;12.93;2.65;;;;;;;37.85;33.46;100872.25;5062847;28;20052;-64
2021/06/28 07:01:42;;;;;;;12.98;2.92;;;;;;;37.72;33.71;100875.34;5064160;28;20105;-64
2021/06/28 07:04:10;;;;;;;9.48;3.53;;;;;;;37.88;33.77;100878.31;5064014;28;20134;-64
2021/06/28 07:06:37;;;;;;;11.13;2.65;;;;;;;37.84;34.04;100868.63;5065702;28;20044;-64
2021/06/28 07:09:06;;;;;;;11.50;2.70;;;;;;;37.92;33.63;100883.56;5066885;28;20051;-64
2021/06/28 07:11:35;;;;;;;12.98;2.53;;;;;;;37.88;33.88;100881.09;5069083;28;20040;-65
2021/06/28 07:14:03;;;;;;;12.73;3.10;;;;;;;37.95;33.77;100875.84;5062611;28;20063;-64
2021/06/28 07:16:33;;;;;;;13.77;3.10;;;;;;;38.04;33.43;100883.25;5073152;28;20082;-64
2021/06/28 07:19:03;;;;;;;9.55;2.72;;;;;;;38.17;33.25;100882.91;5072658;28;20527;-64
2021/06/28 07:21:34;;;;;;;16.63;2.97;;;;;;;38.15;33.13;100884.94;5072490;28;20170;-64
2021/06/28 07:24:02;;;;;;;10.48;3.00;;;;;;;38.07;33.32;100876.59;5072240;28;20052;-66
2021/06/28 07:26:30;;;;;;;11.27;3.85;;;;;;;38.12;33.06;100877.00;5069438;28;20044;-63
2021/06/28 07:29:00;;;;;;;10.15;2.30;;;;;;;38.31;32.74;100887.94;5065104;28;20082;-63
2021/06/28 07:31:28;;;;;;;10.02;2.25;;;;;;;38.32;32.88;100897.97;5069255;28;20544;-64
2021/06/28 07:33:55;;;;;;;8.57;2.60;;;;;;;38.26;32.53;100895.81;5068904;28;20726;-64
2021/06/28 07:36:24;;;;;;;10.32;2.40;;;;;;;38.12;32.83;100894.41;5069024;28;20040;-64
2021/06/28 07:38:51;;;;;;;10.65;2.60;;;;;;;38.00;32.86;100890.06;5067645;28;20176;-64
2021/06/28 07:41:19;;;;;;;8.70;2.90;;;;;;;38.04;32.83;100898.94;5066452;28;20048;-64
2021/06/28 07:43:46;;;;;;;10.70;2.50;;;;;;;38.25;32.32;100918.91;5067606;28;20690;-64
2021/06/28 07:46:16;;;;;;;5.63;2.22;;;;;;;38.42;31.91;100908.94;5070596;28;20047;-64
2021/06/28 07:48:43;;;;;;;10.60;2.80;;;;;;;38.43;31.78;100913.44;5062580;28;20040;-64
2021/06/28 07:51:10;;;;;;;11.80;3.25;;;;;;;38.34;32.63;100915.22;5071169;28;21543;-64
2021/06/28 07:53:38;;;;;;;7.00;1.67;;;;;;;38.51;32.16;100919.13;5070590;28;20052;-64
2021/06/28 07:56:17;;;;;;;8.23;2.40;;;;;;;38.54;32.62;100919.66;5072033;28;20036;-64
2021/06/28 07:58:45;;;;;;;12.35;3.00;;;;;;;38.54;32.33;100921.56;5072283;28;20055;-65
2021/06/28 08:01:16;;;;;;;10.00;2.50;;;;;;;38.61;32.40;100922.69;5072500;28;21571;-64
2021/06/28 08:03:46;;;;;;;8.82;2.83;;;;;;;38.53;32.68;100912.41;5072221;28;20510;-64
2021/06/28 08:06:14;;;;;;;8.10;2.25;;;;;;;38.24;32.85;100922.69;5068615;28;20054;-63
2021/06/28 08:08:42;;;;;;;11.02;3.10;;;;;;;38.09;33.74;100922.28;5069591;28;20154;-63
2021/06/28 08:11:11;;;;;;;10.07;2.63;;;;;;;38.11;34.18;100927.66;5069891;28;20085;-64
2021/06/28 08:13:41;;;;;;;12.32;3.08;;;;;;;38.20;33.70;100921.25;5066719;28;20093;-64
2021/06/28 08:16:09;;;;;;;10.82;2.75;;;;;;;38.18;34.08;100923.28;5043553;28;20040;-63
2021/06/28 08:18:39;;;;;;;9.52;3.15;;;;;;;38.26;33.76;100921.53;5071774;28;20044;-65
2021/06/28 08:21:06;;;;;;;12.65;3.13;;;;;;;38.26;33.38;100932.56;5069898;28;20378;-64
2021/06/28 08:23:34;;;;;;;12.23;2.35;;;;;;;38.30;33.02;100922.06;5071508;28;20473;-65
2021/06/28 08:26:01;;;;;;;9.93;3.35;;;;;;;37.90;33.48;100930.59;5064536;28;20048;-64
2021/06/28 08:28:28;;;;;;;7.47;2.20;;;;;;;37.93;33.97;100934.94;5071764;28;20685;-65
2021/06/28 08:30:56;;;;;;;12.55;2.83;;;;;;;38.01;34.02;100924.88;5065613;28;20043;-65
2021/06/28 08:33:25;;;;;;;11.00;2.90;;;;;;;38.05;33.98;100934.66;5063522;28;20044;-64
2021/06/28 08:35:54;;;;;;;9.75;3.63;;;;;;;38.17;33.64;100929.81;5069503;28;20148;-64
2021/06/28 08:38:22;;;;;;;13.30;2.70;;;;;;;38.26;34.01;100932.56;5071479;28;20062;-64
2021/06/28 08:40:51;;;;;;;11.05;2.53;;;;;;;38.35;33.59;100939.03;5060611;28;20047;-64
2021/06/28 08:43:18;;;;;;;19.90;3.55;;;;;;;38.35;33.75;100936.28;5063801;28;20253;-65
2021/06/28 08:45:46;;;;;;;13.57;2.95;;;;;;;38.55;33.57;100929.69;5070490;28;20059;-64
2021/06/28 08:48:14;;;;;;;13.10;3.15;;;;;;;38.53;33.37;100931.72;5071439;28;20847;-65
2021/06/28 08:50:43;;;;;;;12.30;3.40;;;;;;;38.44;33.44;100924.34;5071697;28;20067;-64
2021/06/28 08:53:14;;;;;;;10.93;3.35;;;;;;;38.52;33.37;100930.00;5070511;28;20914;-64
2021/06/28 08:55:43;;;;;;;11.75;3.38;;;;;;;38.52;33.10;100932.78;5063858;27;20048;-64
2021/06/28 08:58:11;;;;;;;10.95;2.47;;;;;;;38.36;34.00;100926.13;5065040;28;20056;-63
2021/06/28 09:00:42;;;;;;;8.38;2.53;;;;;;;38.32;33.53;100931.09;5068163;28;20052;-64
2021/06/28 09:03:14;;;;;;;11.35;3.40;;;;;;;37.98;33.59;100918.81;5071538;28;20048;-64
2021/06/28 09:05:52;;;;;;;13.15;3.45;;;;;;;37.84;34.19;100936.69;5070410;28;20047;-64
2021/06/28 09:08:23;;;;;;;9.63;3.58;;;;;;;38.00;33.51;100936.97;5071185;28;20052;-64
2021/06/28 09:10:51;;;;;;;9.40;3.00;;;;;;;38.30;33.35;100946.91;5071510;28;20427;-64
2021/06/28 09:13:19;;;;;;;7.25;2.63;;;;;;;38.44;33.34;100946.44;5069147;28;21405;-65
2021/06/28 09:15:49;;;;;;;15.93;3.67;;;;;;;38.50;33.06;100947.75;5066923;28;20044;-62
2021/06/28 09:18:26;;;;;;;11.30;2.50;;;;;;;38.68;33.02;100944.00;5064950;28;20044;-63
2021/06/28 09:21:08;;;;;;;11.00;3.17;;;;;;;38.82;32.26;100950.91;5063281;28;20051;-64
2021/06/28 09:23:44;;;;;;;8.98;3.17;;;;;;;38.99;31.60;100949.28;5065113;28;20039;-63
2021/06/28 09:26:18;;;;;;;9.90;2.80;;;;;;;38.89;31.28;100951.16;5063734;28;20056;-63
2021/06/28 09:28:49;;;;;;;13.88;2.88;;;;;;;38.71;31.37;100947.50;5064849;28;20129;-63
2021/06/28 09:31:32;;;;;;;10.32;2.63;;;;;;;38.66;31.82;100945.22;5064187;28;20485;-64
2021/06/28 09:34:11;;;;;;;12.65;3.50;;;;;;;38.70;31.82;100946.63;5063594;28;20052;-64
2021/06/28 09:36:56;;;;;;;6.20;2.35;;;;;;;38.90;31.68;100950.16;5064358;28;20032;-63
2021/06/28 09:39:31;;;;;;;9.50;3.10;;;;;;;38.98;31.60;100953.91;5063420;28;20055;-64
2021/06/28 09:42:11;;;;;;;12.98;3.28;;;;;;;38.88;31.55;100943.91;5067971;28;20067;-64
2021/06/28 09:44:40;;;;;;;13.80;2.70;;;;;;;38.88;31.34;100943.91;5070320;28;20442;-65
2021/06/28 09:47:13;;;;;;;10.10;3.72;;;;;;;38.70;31.34;100940.25;5062791;28;20040;-65
2021/06/28 09:49:43;;;;;;;11.25;3.10;;;;;;;38.41;31.65;100949.47;5063512;28;20055;-63
2021/06/28 09:52:11;;;;;;;7.82;2.33;;;;;;;38.35;31.84;100936.28;5066783;28;20509;-64
2021/06/28 09:54:41;;;;;;;10.15;3.65;;;;;;;38.39;31.89;100936.88;5070591;28;21259;-64
2021/06/28 09:57:10;;;;;;;11.93;3.05;;;;;;;38.41;32.56;100934.81;5049932;28;20055;-65
2021/06/28 09:59:39;;;;;;;8.55;2.80;;;;;;;38.25;32.77;100940.97;5063872;28;20048;-64
2021/06/28 10:02:22;;;;;;;12.15;3.03;;;;;;;38.08;33.32;100933.47;5070152;28;20192;-64
2021/06/28 10:04:56;;;;;;;11.90;3.30;;;;;;;37.99;33.75;100953.66;5045124;28;20048;-64
2021/06/28 10:07:33;;;;;;;10.27;3.17;;;;;;;38.06;34.09;100938.28;5050200;28;20588;-63
2021/06/28 10:10:17;;;;;;;11.32;3.03;;;;;;;38.13;33.18;100939.44;5043811;28;20257;-63
2021/06/28 10:12:47;;;;;;;8.25;3.08;;;;;;;38.05;33.97;100928.25;5064499;28;20576;-64
2021/06/28 10:15:18;;;;;;;14.88;4.65;;;;;;;38.02;33.90;100932.16;5046476;28;20505;-64
2021/06/28 10:17:48;;;;;;;10.38;3.00;;;;;;;38.03;33.64;100930.28;5041267;28;20765;-64
2021/06/28 10:20:18;;;;;;;8.88;3.13;;;;;;;37.89;33.65;100924.19;5040515;28;20045;-64
2021/06/28 10:22:47;;;;;;;9.25;2.65;;;;;;;37.75;33.65;100921.88;5043067;28;20151;-65
2021/06/28 10:25:18;;;;;;;9.38;3.50;;;;;;;37.44;34.74;100931.31;5038829;28;20184;-65
2021/06/28 10:27:46;;;;;;;8.85;3.05;;;;;;;37.18;34.94;100921.88;5042135;28;20048;-64
2021/06/28 10:30:17;;;;;;;11.45;3.80;;;;;;;37.16;35.23;100929.41;5038484;28;20044;-64
2021/06/28 10:32:46;;;;;;;9.90;3.58;;;;;;;37.08;35.38;100930.13;5040402;28;20052;-64
2021/06/28 10:35:15;;;;;;;9.85;2.90;;;;;;;37.23;35.19;100927.81;5038588;28;20041;-64
2021/06/28 10:37:47;;;;;;;8.43;3.30;;;;;;;37.32;34.72;100916.81;5043542;28;20129;-64
2021/06/28 10:40:18;;;;;;;9.82;3.50;;;;;;;37.30;35.11;100934.50;5038478;28;20767;-64
2021/06/28 10:42:48;;;;;;;10.63;3.00;;;;;;;37.26;35.34;100925.66;5040063;28;20044;-64
2021/06/28 10:45:18;;;;;;;9.70;3.17;;;;;;;37.34;35.11;100934.09;5039630;28;20049;-65
2021/06/28 10:48:11;;;;;;;10.02;3.58;;;;;;;37.53;34.70;100935.97;5041724;28;20169;-65
2021/06/28 10:50:57;;;;;;;12.50;3.60;;;;;;;37.68;33.97;100922.66;5042901;28;20052;-66
2021/06/28 10:54:15;;;;;;;11.70;3.08;;;;;;;37.75;33.37;100927.41;5046011;28;20441;-66
2021/06/28 10:56:49;;;;;;;9.50;3.38;;;;;;;37.82;33.23;100917.53;5041527;28;20055;-64
2021/06/28 10:59:20;;;;;;;;;;;;;;;37.83;33.25;100918.41;5045105;28;20701;-64
2021/06/28 11:01:56;;;;;;;15.38;4.05;;;;;;;37.83;33.14;100934.94;5043021;28;19947;-64
2021/06/28 11:04:35;;;;;;;9.27;3.08;;;;;;;37.76;33.40;100915.38;5044789;28;20689;-63
2021/06/28 11:07:18;;;;;;;9.55;3.15;;;;;;;37.85;33.16;100911.72;5054402;28;20040;-64
2021/06/28 11:09:53;;;;;;;14.60;3.70;;;;;;;38.02;33.28;100920.25;5058779;28;20036;-64
2021/06/28 11:12:33;;;;;;;14.43;4.43;;;;;;;38.36;32.98;100928.88;5063911;28;20052;-65
2021/06/28 11:15:04;;;;;;;9.93;2.90;;;;;;;38.55;32.67;100912.25;5062575;28;20062;-64
2021/06/28 11:17:47;;;;;;;10.60;3.50;;;;;;;38.78;32.44;100924.66;5062897;28;20044;-64
2021/06/28 11:20:33;;;;;;;13.48;4.00;;;;;;;39.09;31.89;100914.16;5061864;28;20463;-65
2021/06/28 11:23:10;;;;;;;8.77;3.97;;;;;;;39.29;31.36;100904.69;5063612;28;20051;-65
2021/06/28 11:25:47;;;;;;;13.95;3.70;;;;;;;39.36;30.96;100910.47;5061238;28;21552;-64
2021/06/28 11:28:23;;;;;;;11.68;3.25;;;;;;;39.48;30.62;100908.31;5070062;28;20082;-64
2021/06/28 11:31:05;;;;;;;11.95;3.30;;;;;;;39.58;30.91;100918.28;5068631;28;20132;-64